Kempner, TX

7:34 PM CST on January 31, 2015 (GMT -0600)
Pecan Valley | Change Station
CLOSE
Current Station
Personal Weather Station
Location: Kempner, TX
Elevation: 942 ft
Nearby Weather Stations

Elev 942 ft 31.11 °N, 97.99 °W | Updated 5 seconds ago

Rain
Rain
55.3 °F
Feels Like 55.3 °F
N
4.0
Wind Variable Wind from SW
Gusts 5.0 mph

Today
High -- | Low -- °F
--% Chance of Precip.
Yesterday
High -- | Low -- °F
Precip. -- in
7:24 AM 6:06 PM
Waxing Gibbous, 92% visible
Pressure 29.89 in
Visibility 2.0 miles
Clouds Overcast 300 ft
Dew Point 54 °F
Humidity 96%
Rainfall 0.15 in
Snow Depth Not available.
UV 0 out of 12
Pollen 6.40 out of 12
Air Quality Not available.
Flu Activity Not available.
METAR KGRK 010058Z COR 12011KT 2SM BR OVC003 12/12 A2989 RMK AO2A TWR VIS 1 1/12 SLP120 P0002 COR 0109

More Conditions Fewer Conditions

Pressure 29.89 in
Visibility 2.0 miles
Clouds Overcast 300 ft
Dew Point 54 °F
Humidity 96%
Rainfall 0.15 in
Snow Depth Not available.
UV 0 out of 12
Pollen 6.40 out of 12
Air Quality Not available.
Flu Activity Not available.
METAR KGRK 010058Z COR 12011KT 2SM BR OVC003 12/12 A2989 RMK AO2A TWR VIS 1 1/12 SLP120 P0002 COR 0109

More Conditions Fewer Conditions

10-Day Weather Forecast

Almanac

Astronomy

Jan. 31, 2015 Rise Set
Actual Time
Civil Twilight
Nautical Twilight
Astronomical Twilight
Moon
Length of Visible Light
Length of Day
Tomorrow will be .
, % of the Moon is Illuminated

Today's Extremes

State Highs State Lows

Community

WunderPhotos

Upload Photos

1,792,278 photos uploaded!

WunderBlogs® & News

Nearby

Air Quality

  Air Quality AQ Index Pollutant
Not available.

Snow Depth

Station Depth Elevation

Earthquake Activity

City Distance Mag. Time & Date
Minimum magnitude displayed is 2.5.

Coastal Water Temperatures

Place Temperature

Nearby Weather Stations